sensor_id;sensor_type;location;lat;lon;timestamp;temperature;humidity
9414;DHT22;4746;35.664;139.738;2023-06-22T00:01:21;24.30;99.90
9414;DHT22;4746;35.664;139.738;2023-06-22T00:03:49;24.30;99.90
9414;DHT22;4746;35.664;139.738;2023-06-22T00:06:16;24.20;99.90
9414;DHT22;4746;35.664;139.738;2023-06-22T00:08:44;24.20;99.90
9414;DHT22;4746;35.664;139.738;2023-06-22T00:11:12;24.10;99.90
9414;DHT22;4746;35.664;139.738;2023-06-22T00:13:40;24.00;99.90
9414;DHT22;4746;35.664;139.738;2023-06-22T00:16:07;23.90;99.90
9414;DHT22;4746;35.664;139.738;2023-06-22T00:18:35;23.90;99.90
9414;DHT22;4746;35.664;139.738;2023-06-22T00:21:02;23.70;99.90
9414;DHT22;4746;35.664;139.738;2023-06-22T00:23:30;23.60;99.90
9414;DHT22;4746;35.664;139.738;2023-06-22T00:26:00;23.50;99.90
9414;DHT22;4746;35.664;139.738;2023-06-22T00:28:29;23.50;99.90
9414;DHT22;4746;35.664;139.738;2023-06-22T00:30:56;23.50;99.90
9414;DHT22;4746;35.664;139.738;2023-06-22T00:33:24;23.50;99.90
9414;DHT22;4746;35.664;139.738;2023-06-22T00:35:52;23.50;99.90
9414;DHT22;4746;35.664;139.738;2023-06-22T00:38:20;23.60;99.90
9414;DHT22;4746;35.664;139.738;2023-06-22T00:40:47;23.60;99.90
9414;DHT22;4746;35.664;139.738;2023-06-22T00:43:15;23.60;99.90
9414;DHT22;4746;35.664;139.738;2023-06-22T00:45:42;23.70;99.90
9414;DHT22;4746;35.664;139.738;2023-06-22T00:48:10;23.70;99.90
9414;DHT22;4746;35.664;139.738;2023-06-22T00:50:40;23.80;99.90
9414;DHT22;4746;35.664;139.738;2023-06-22T00:53:09;23.80;99.90
9414;DHT22;4746;35.664;139.738;2023-06-22T00:55:41;23.90;99.90
9414;DHT22;4746;35.664;139.738;2023-06-22T00:58:11;24.10;99.90
9414;DHT22;4746;35.664;139.738;2023-06-22T01:00:40;24.10;99.90
9414;DHT22;4746;35.664;139.738;2023-06-22T01:03:08;24.10;99.90
9414;DHT22;4746;35.664;139.738;2023-06-22T01:05:37;24.20;99.90
9414;DHT22;4746;35.664;139.738;2023-06-22T01:11:26;24.40;99.90
9414;DHT22;4746;35.664;139.738;2023-06-22T01:14:10;24.40;99.90
9414;DHT22;4746;35.664;139.738;2023-06-22T01:16:44;24.50;99.90
9414;DHT22;4746;35.664;139.738;2023-06-22T01:19:48;24.60;99.90
9414;DHT22;4746;35.664;139.738;2023-06-22T01:22:31;24.80;99.90
9414;DHT22;4746;35.664;139.738;2023-06-22T01:25:19;24.90;99.90
9414;DHT22;4746;35.664;139.738;2023-06-22T01:30:47;25.30;99.90
9414;DHT22;4746;35.664;139.738;2023-06-22T01:33:30;25.40;99.90
9414;DHT22;4746;35.664;139.738;2023-06-22T01:36:02;25.50;99.90
9414;DHT22;4746;35.664;139.738;2023-06-22T01:38:31;25.70;99.90
9414;DHT22;4746;35.664;139.738;2023-06-22T01:41:01;25.70;99.90
9414;DHT22;4746;35.664;139.738;2023-06-22T01:43:29;25.90;99.90
9414;DHT22;4746;35.664;139.738;2023-06-22T01:46:02;26.00;99.90
9414;DHT22;4746;35.664;139.738;2023-06-22T01:48:30;26.10;99.90
9414;DHT22;4746;35.664;139.738;2023-06-22T01:50:59;26.10;99.90
9414;DHT22;4746;35.664;139.738;2023-06-22T01:53:26;26.10;99.90
9414;DHT22;4746;35.664;139.738;2023-06-22T01:55:54;26.20;99.90
9414;DHT22;4746;35.664;139.738;2023-06-22T01:58:26;26.20;99.90
9414;DHT22;4746;35.664;139.738;2023-06-22T02:01:10;26.20;99.90
9414;DHT22;4746;35.664;139.738;2023-06-22T02:03:46;26.20;99.90
9414;DHT22;4746;35.664;139.738;2023-06-22T02:06:31;26.20;99.90
9414;DHT22;4746;35.664;139.738;2023-06-22T02:09:08;26.30;99.90
9414;DHT22;4746;35.664;139.738;2023-06-22T02:11:41;26.20;99.90
9414;DHT22;4746;35.664;139.738;2023-06-22T02:14:11;26.20;99.90
9414;DHT22;4746;35.664;139.738;2023-06-22T02:16:41;26.20;99.90
9414;DHT22;4746;35.664;139.738;2023-06-22T02:19:09;26.20;99.90
9414;DHT22;4746;35.664;139.738;2023-06-22T02:21:37;26.20;99.90
9414;DHT22;4746;35.664;139.738;2023-06-22T02:24:05;26.20;99.90
9414;DHT22;4746;35.664;139.738;2023-06-22T02:26:33;26.20;99.90
9414;DHT22;4746;35.664;139.738;2023-06-22T02:29:00;26.30;99.90
9414;DHT22;4746;35.664;139.738;2023-06-22T02:31:29;26.20;99.90
9414;DHT22;4746;35.664;139.738;2023-06-22T02:34:00;26.30;99.90
9414;DHT22;4746;35.664;139.738;2023-06-22T02:36:27;26.50;99.90
9414;DHT22;4746;35.664;139.738;2023-06-22T02:38:56;26.40;99.90
9414;DHT22;4746;35.664;139.738;2023-06-22T02:41:25;26.30;99.90
9414;DHT22;4746;35.664;139.738;2023-06-22T02:43:52;26.20;99.90
9414;DHT22;4746;35.664;139.738;2023-06-22T02:46:20;26.20;99.90
9414;DHT22;4746;35.664;139.738;2023-06-22T02:48:48;26.00;99.90
9414;DHT22;4746;35.664;139.738;2023-06-22T02:51:15;25.60;99.90
9414;DHT22;4746;35.664;139.738;2023-06-22T02:53:43;25.30;99.90
9414;DHT22;4746;35.664;139.738;2023-06-22T02:56:11;25.00;99.90
9414;DHT22;4746;35.664;139.738;2023-06-22T02:58:39;24.80;99.90
9414;DHT22;4746;35.664;139.738;2023-06-22T03:01:06;24.70;99.90
9414;DHT22;4746;35.664;139.738;2023-06-22T03:03:34;24.80;99.90
9414;DHT22;4746;35.664;139.738;2023-06-22T03:06:01;24.60;99.90
9414;DHT22;4746;35.664;139.738;2023-06-22T03:08:29;24.50;99.90
9414;DHT22;4746;35.664;139.738;2023-06-22T03:10:57;24.30;99.90
9414;DHT22;4746;35.664;139.738;2023-06-22T03:13:26;24.30;99.90
9414;DHT22;4746;35.664;139.738;2023-06-22T03:15:54;24.30;99.90
9414;DHT22;4746;35.664;139.738;2023-06-22T03:18:22;24.30;99.90
9414;DHT22;4746;35.664;139.738;2023-06-22T03:20:49;24.30;99.90
9414;DHT22;4746;35.664;139.738;2023-06-22T03:23:18;24.40;99.90
9414;DHT22;4746;35.664;139.738;2023-06-22T03:25:46;24.40;99.90
9414;DHT22;4746;35.664;139.738;2023-06-22T03:28:13;24.30;99.90
9414;DHT22;4746;35.664;139.738;2023-06-22T03:30:41;24.30;99.90
9414;DHT22;4746;35.664;139.738;2023-06-22T03:33:08;24.30;99.90
9414;DHT22;4746;35.664;139.738;2023-06-22T03:35:36;24.30;99.90
9414;DHT22;4746;35.664;139.738;2023-06-22T03:38:04;24.40;99.90
9414;DHT22;4746;35.664;139.738;2023-06-22T03:40:32;24.50;99.90
9414;DHT22;4746;35.664;139.738;2023-06-22T03:42:59;24.50;99.90
9414;DHT22;4746;35.664;139.738;2023-06-22T03:45:27;24.40;99.90
9414;DHT22;4746;35.664;139.738;2023-06-22T03:47:54;24.50;99.90
9414;DHT22;4746;35.664;139.738;2023-06-22T03:50:22;24.50;99.90
9414;DHT22;4746;35.664;139.738;2023-06-22T03:52:49;24.40;99.90
9414;DHT22;4746;35.664;139.738;2023-06-22T03:55:20;24.50;99.90
9414;DHT22;4746;35.664;139.738;2023-06-22T03:57:47;24.60;99.90
9414;DHT22;4746;35.664;139.738;2023-06-22T04:00:15;24.60;99.90
9414;DHT22;4746;35.664;139.738;2023-06-22T04:02:43;24.70;99.90
9414;DHT22;4746;35.664;139.738;2023-06-22T04:05:11;24.80;99.90
9414;DHT22;4746;35.664;139.738;2023-06-22T04:07:38;24.70;99.90
9414;DHT22;4746;35.664;139.738;2023-06-22T04:10:06;24.70;99.90
9414;DHT22;4746;35.664;139.738;2023-06-22T04:12:34;24.60;99.90
9414;DHT22;4746;35.664;139.738;2023-06-22T04:15:02;24.60;99.90
9414;DHT22;4746;35.664;139.738;2023-06-22T04:17:31;24.40;99.90
9414;DHT22;4746;35.664;139.738;2023-06-22T04:19:59;24.30;99.90
9414;DHT22;4746;35.664;139.738;2023-06-22T04:22:27;24.10;99.90
9414;DHT22;4746;35.664;139.738;2023-06-22T04:24:54;24.10;99.90
9414;DHT22;4746;35.664;139.738;2023-06-22T04:27:26;24.00;99.90
9414;DHT22;4746;35.664;139.738;2023-06-22T04:29:53;23.90;99.90
9414;DHT22;4746;35.664;139.738;2023-06-22T04:32:21;23.90;99.90
9414;DHT22;4746;35.664;139.738;2023-06-22T04:34:48;23.90;99.90
9414;DHT22;4746;35.664;139.738;2023-06-22T04:37:16;23.90;99.90
9414;DHT22;4746;35.664;139.738;2023-06-22T04:39:43;23.80;99.90
9414;DHT22;4746;35.664;139.738;2023-06-22T04:42:12;23.80;99.90
9414;DHT22;4746;35.664;139.738;2023-06-22T04:44:40;23.80;99.90
9414;DHT22;4746;35.664;139.738;2023-06-22T04:47:08;23.80;99.90
9414;DHT22;4746;35.664;139.738;2023-06-22T04:49:37;23.80;99.90
9414;DHT22;4746;35.664;139.738;2023-06-22T04:52:12;23.80;99.90
9414;DHT22;4746;35.664;139.738;2023-06-22T04:54:44;23.70;99.90
9414;DHT22;4746;35.664;139.738;2023-06-22T04:57:14;23.70;99.90
9414;DHT22;4746;35.664;139.738;2023-06-22T04:59:42;23.70;99.90
9414;DHT22;4746;35.664;139.738;2023-06-22T05:02:10;23.70;99.90
9414;DHT22;4746;35.664;139.738;2023-06-22T05:04:38;23.70;99.90
9414;DHT22;4746;35.664;139.738;2023-06-22T05:07:05;23.60;99.90
9414;DHT22;4746;35.664;139.738;2023-06-22T05:09:33;23.60;99.90
9414;DHT22;4746;35.664;139.738;2023-06-22T05:12:03;23.50;99.90
9414;DHT22;4746;35.664;139.738;2023-06-22T05:14:31;23.40;99.90
9414;DHT22;4746;35.664;139.738;2023-06-22T05:16:58;23.30;99.90
9414;DHT22;4746;35.664;139.738;2023-06-22T05:19:30;23.20;99.90
9414;DHT22;4746;35.664;139.738;2023-06-22T05:21:59;23.10;99.90
9414;DHT22;4746;35.664;139.738;2023-06-22T05:24:27;23.10;99.90
9414;DHT22;4746;35.664;139.738;2023-06-22T05:26:54;23.00;99.90
9414;DHT22;4746;35.664;139.738;2023-06-22T05:29:22;23.00;99.90
9414;DHT22;4746;35.664;139.738;2023-06-22T05:31:49;22.90;99.90
9414;DHT22;4746;35.664;139.738;2023-06-22T05:34:17;22.90;99.90
9414;DHT22;4746;35.664;139.738;2023-06-22T05:36:44;22.90;99.90
9414;DHT22;4746;35.664;139.738;2023-06-22T05:39:13;22.90;99.90
9414;DHT22;4746;35.664;139.738;2023-06-22T05:41:41;22.90;99.90
9414;DHT22;4746;35.664;139.738;2023-06-22T05:44:09;22.90;99.90
9414;DHT22;4746;35.664;139.738;2023-06-22T05:46:40;22.90;99.90
9414;DHT22;4746;35.664;139.738;2023-06-22T05:49:13;22.90;99.90
9414;DHT22;4746;35.664;139.738;2023-06-22T05:51:42;22.90;99.90
9414;DHT22;4746;35.664;139.738;2023-06-22T05:54:10;22.90;99.90
9414;DHT22;4746;35.664;139.738;2023-06-22T05:56:41;22.90;99.90
9414;DHT22;4746;35.664;139.738;2023-06-22T05:59:08;22.90;99.90
9414;DHT22;4746;35.664;139.738;2023-06-22T06:01:35;22.90;99.90
9414;DHT22;4746;35.664;139.738;2023-06-22T06:04:03;22.90;99.90
9414;DHT22;4746;35.664;139.738;2023-06-22T06:06:31;22.90;99.90
9414;DHT22;4746;35.664;139.738;2023-06-22T06:09:01;22.90;99.90
9414;DHT22;4746;35.664;139.738;2023-06-22T06:11:29;22.90;99.90
9414;DHT22;4746;35.664;139.738;2023-06-22T06:13:56;22.80;99.90
9414;DHT22;4746;35.664;139.738;2023-06-22T06:16:23;22.70;99.90
9414;DHT22;4746;35.664;139.738;2023-06-22T06:18:51;22.60;99.90
9414;DHT22;4746;35.664;139.738;2023-06-22T06:21:21;22.60;99.90
9414;DHT22;4746;35.664;139.738;2023-06-22T06:23:48;22.50;99.90
9414;DHT22;4746;35.664;139.738;2023-06-22T06:26:16;22.50;99.90
9414;DHT22;4746;35.664;139.738;2023-06-22T06:28:44;22.40;99.90
9414;DHT22;4746;35.664;139.738;2023-06-22T06:31:12;22.40;99.90
9414;DHT22;4746;35.664;139.738;2023-06-22T06:33:43;22.30;99.90
9414;DHT22;4746;35.664;139.738;2023-06-22T06:36:11;22.20;99.90
9414;DHT22;4746;35.664;139.738;2023-06-22T06:38:38;22.10;99.90
9414;DHT22;4746;35.664;139.738;2023-06-22T06:41:06;22.20;99.90
9414;DHT22;4746;35.664;139.738;2023-06-22T06:43:33;22.10;99.90
9414;DHT22;4746;35.664;139.738;2023-06-22T06:46:03;22.10;99.90
9414;DHT22;4746;35.664;139.738;2023-06-22T06:48:31;22.00;99.90
9414;DHT22;4746;35.664;139.738;2023-06-22T06:50:58;22.00;99.90
9414;DHT22;4746;35.664;139.738;2023-06-22T06:53:26;22.00;99.90
9414;DHT22;4746;35.664;139.738;2023-06-22T06:55:55;22.00;99.90
9414;DHT22;4746;35.664;139.738;2023-06-22T06:58:22;21.90;99.90
9414;DHT22;4746;35.664;139.738;2023-06-22T07:00:50;21.90;99.90
9414;DHT22;4746;35.664;139.738;2023-06-22T07:03:17;21.90;99.90
9414;DHT22;4746;35.664;139.738;2023-06-22T07:05:45;21.90;99.90
9414;DHT22;4746;35.664;139.738;2023-06-22T07:08:14;21.90;99.90
9414;DHT22;4746;35.664;139.738;2023-06-22T07:10:42;21.90;99.90
9414;DHT22;4746;35.664;139.738;2023-06-22T07:13:09;21.90;99.90
9414;DHT22;4746;35.664;139.738;2023-06-22T07:15:38;21.90;99.90
9414;DHT22;4746;35.664;139.738;2023-06-22T07:18:05;21.90;99.90
9414;DHT22;4746;35.664;139.738;2023-06-22T07:20:33;21.90;99.90
9414;DHT22;4746;35.664;139.738;2023-06-22T07:23:00;22.00;99.90
9414;DHT22;4746;35.664;139.738;2023-06-22T07:25:28;21.90;99.90
9414;DHT22;4746;35.664;139.738;2023-06-22T07:28:04;21.90;99.90
9414;DHT22;4746;35.664;139.738;2023-06-22T07:30:34;21.90;99.90
9414;DHT22;4746;35.664;139.738;2023-06-22T07:33:02;22.00;99.90
9414;DHT22;4746;35.664;139.738;2023-06-22T07:35:31;21.90;99.90
9414;DHT22;4746;35.664;139.738;2023-06-22T07:37:59;21.90;99.90
9414;DHT22;4746;35.664;139.738;2023-06-22T07:40:30;21.90;99.90
9414;DHT22;4746;35.664;139.738;2023-06-22T07:42:57;22.00;99.90
9414;DHT22;4746;35.664;139.738;2023-06-22T07:45:25;21.90;99.90
9414;DHT22;4746;35.664;139.738;2023-06-22T07:47:52;21.90;99.90
9414;DHT22;4746;35.664;139.738;2023-06-22T07:50:20;21.80;99.90
9414;DHT22;4746;35.664;139.738;2023-06-22T07:52:47;21.80;99.90
9414;DHT22;4746;35.664;139.738;2023-06-22T07:55:15;21.80;99.90
9414;DHT22;4746;35.664;139.738;2023-06-22T07:57:42;21.90;99.90
9414;DHT22;4746;35.664;139.738;2023-06-22T08:00:10;21.90;99.90
9414;DHT22;4746;35.664;139.738;2023-06-22T08:02:43;22.00;99.90
9414;DHT22;4746;35.664;139.738;2023-06-22T08:05:13;22.00;99.90
9414;DHT22;4746;35.664;139.738;2023-06-22T08:07:41;22.10;99.90
9414;DHT22;4746;35.664;139.738;2023-06-22T08:10:13;22.20;99.90
9414;DHT22;4746;35.664;139.738;2023-06-22T08:12:41;22.20;99.90
9414;DHT22;4746;35.664;139.738;2023-06-22T08:15:09;22.20;99.90
9414;DHT22;4746;35.664;139.738;2023-06-22T08:17:37;22.20;99.90
9414;DHT22;4746;35.664;139.738;2023-06-22T08:20:07;22.30;99.90
9414;DHT22;4746;35.664;139.738;2023-06-22T08:22:41;22.20;99.90
9414;DHT22;4746;35.664;139.738;2023-06-22T08:25:11;22.10;99.90
9414;DHT22;4746;35.664;139.738;2023-06-22T08:27:39;22.00;99.90
9414;DHT22;4746;35.664;139.738;2023-06-22T08:30:07;21.90;99.90
9414;DHT22;4746;35.664;139.738;2023-06-22T08:32:37;21.80;99.90
9414;DHT22;4746;35.664;139.738;2023-06-22T08:35:05;21.80;99.90
9414;DHT22;4746;35.664;139.738;2023-06-22T08:37:36;21.70;99.90
9414;DHT22;4746;35.664;139.738;2023-06-22T08:40:07;21.70;99.90
9414;DHT22;4746;35.664;139.738;2023-06-22T08:42:36;21.70;99.90
9414;DHT22;4746;35.664;139.738;2023-06-22T08:45:05;21.70;99.90
9414;DHT22;4746;35.664;139.738;2023-06-22T08:47:33;21.70;99.90
9414;DHT22;4746;35.664;139.738;2023-06-22T08:50:00;21.70;99.90
9414;DHT22;4746;35.664;139.738;2023-06-22T08:52:31;21.70;99.90
9414;DHT22;4746;35.664;139.738;2023-06-22T08:54:58;21.60;99.90
9414;DHT22;4746;35.664;139.738;2023-06-22T08:57:26;21.70;99.90
9414;DHT22;4746;35.664;139.738;2023-06-22T08:59:54;21.70;99.90
9414;DHT22;4746;35.664;139.738;2023-06-22T09:02:25;21.70;99.90
9414;DHT22;4746;35.664;139.738;2023-06-22T09:04:57;21.60;99.90
9414;DHT22;4746;35.664;139.738;2023-06-22T09:07:25;21.60;99.90
9414;DHT22;4746;35.664;139.738;2023-06-22T09:09:52;21.40;99.90
9414;DHT22;4746;35.664;139.738;2023-06-22T09:12:20;21.40;99.90
9414;DHT22;4746;35.664;139.738;2023-06-22T09:14:52;21.30;99.90
9414;DHT22;4746;35.664;139.738;2023-06-22T09:17:20;21.30;99.90
9414;DHT22;4746;35.664;139.738;2023-06-22T09:19:48;21.20;99.90
9414;DHT22;4746;35.664;139.738;2023-06-22T09:22:15;21.10;99.90
9414;DHT22;4746;35.664;139.738;2023-06-22T09:24:43;21.10;99.90
9414;DHT22;4746;35.664;139.738;2023-06-22T09:27:10;21.00;99.90
9414;DHT22;4746;35.664;139.738;2023-06-22T09:29:38;20.90;99.90
9414;DHT22;4746;35.664;139.738;2023-06-22T09:32:06;20.90;99.90
9414;DHT22;4746;35.664;139.738;2023-06-22T09:34:34;20.80;99.90
9414;DHT22;4746;35.664;139.738;2023-06-22T09:37:01;20.80;99.90
9414;DHT22;4746;35.664;139.738;2023-06-22T09:39:29;20.80;99.90
9414;DHT22;4746;35.664;139.738;2023-06-22T09:41:59;20.80;99.90
9414;DHT22;4746;35.664;139.738;2023-06-22T09:44:26;20.80;99.90
9414;DHT22;4746;35.664;139.738;2023-06-22T09:46:54;20.80;99.90
9414;DHT22;4746;35.664;139.738;2023-06-22T09:49:22;20.80;99.90
9414;DHT22;4746;35.664;139.738;2023-06-22T09:51:49;20.80;99.90
9414;DHT22;4746;35.664;139.738;2023-06-22T09:54:17;20.80;99.90
9414;DHT22;4746;35.664;139.738;2023-06-22T09:56:44;20.70;99.90
9414;DHT22;4746;35.664;139.738;2023-06-22T09:59:12;20.70;99.90
9414;DHT22;4746;35.664;139.738;2023-06-22T10:01:39;20.70;99.90
9414;DHT22;4746;35.664;139.738;2023-06-22T10:04:07;20.50;99.90
9414;DHT22;4746;35.664;139.738;2023-06-22T10:06:34;20.50;99.90
9414;DHT22;4746;35.664;139.738;2023-06-22T10:09:02;20.40;99.90
9414;DHT22;4746;35.664;139.738;2023-06-22T10:11:29;20.40;99.90
9414;DHT22;4746;35.664;139.738;2023-06-22T10:13:57;20.30;99.90
9414;DHT22;4746;35.664;139.738;2023-06-22T10:16:30;20.20;99.90
9414;DHT22;4746;35.664;139.738;2023-06-22T10:18:59;20.10;99.90
9414;DHT22;4746;35.664;139.738;2023-06-22T10:21:26;20.00;99.90
9414;DHT22;4746;35.664;139.738;2023-06-22T10:23:55;19.90;99.90
9414;DHT22;4746;35.664;139.738;2023-06-22T10:26:22;19.90;99.90
9414;DHT22;4746;35.664;139.738;2023-06-22T10:28:50;19.80;99.90
9414;DHT22;4746;35.664;139.738;2023-06-22T10:31:18;19.80;99.90
9414;DHT22;4746;35.664;139.738;2023-06-22T10:33:45;19.80;99.90
9414;DHT22;4746;35.664;139.738;2023-06-22T10:36:15;19.80;99.90
9414;DHT22;4746;35.664;139.738;2023-06-22T10:38:43;19.90;99.90
9414;DHT22;4746;35.664;139.738;2023-06-22T10:41:11;19.80;99.90
9414;DHT22;4746;35.664;139.738;2023-06-22T10:43:39;19.90;99.90
9414;DHT22;4746;35.664;139.738;2023-06-22T10:46:07;19.80;99.90
9414;DHT22;4746;35.664;139.738;2023-06-22T10:48:35;19.80;99.90
9414;DHT22;4746;35.664;139.738;2023-06-22T10:51:03;19.80;99.90
9414;DHT22;4746;35.664;139.738;2023-06-22T10:53:31;19.80;99.90
9414;DHT22;4746;35.664;139.738;2023-06-22T10:55:59;19.70;99.90
9414;DHT22;4746;35.664;139.738;2023-06-22T10:58:26;19.70;99.90
9414;DHT22;4746;35.664;139.738;2023-06-22T11:00:54;19.60;99.90
9414;DHT22;4746;35.664;139.738;2023-06-22T11:03:21;19.50;99.90
9414;DHT22;4746;35.664;139.738;2023-06-22T11:05:49;19.40;99.90
9414;DHT22;4746;35.664;139.738;2023-06-22T11:08:16;19.40;99.90
9414;DHT22;4746;35.664;139.738;2023-06-22T11:10:44;19.20;99.90
9414;DHT22;4746;35.664;139.738;2023-06-22T11:13:12;19.10;99.90
9414;DHT22;4746;35.664;139.738;2023-06-22T11:15:39;19.00;99.90
9414;DHT22;4746;35.664;139.738;2023-06-22T11:18:07;18.90;99.90
9414;DHT22;4746;35.664;139.738;2023-06-22T11:20:35;18.90;99.90
9414;DHT22;4746;35.664;139.738;2023-06-22T11:23:08;18.80;99.90
9414;DHT22;4746;35.664;139.738;2023-06-22T11:25:35;18.80;99.90
9414;DHT22;4746;35.664;139.738;2023-06-22T11:28:04;18.70;99.90
9414;DHT22;4746;35.664;139.738;2023-06-22T11:30:32;18.70;99.90
9414;DHT22;4746;35.664;139.738;2023-06-22T11:33:00;18.70;99.90
9414;DHT22;4746;35.664;139.738;2023-06-22T11:35:27;18.70;99.90
9414;DHT22;4746;35.664;139.738;2023-06-22T11:37:55;18.60;99.90
9414;DHT22;4746;35.664;139.738;2023-06-22T11:40:22;18.60;99.90
9414;DHT22;4746;35.664;139.738;2023-06-22T11:42:50;18.60;99.90
9414;DHT22;4746;35.664;139.738;2023-06-22T11:45:19;18.60;99.90
9414;DHT22;4746;35.664;139.738;2023-06-22T11:47:47;18.60;99.90
9414;DHT22;4746;35.664;139.738;2023-06-22T11:50:14;18.60;99.90
9414;DHT22;4746;35.664;139.738;2023-06-22T11:52:42;18.60;99.90
9414;DHT22;4746;35.664;139.738;2023-06-22T11:55:10;18.60;99.90
9414;DHT22;4746;35.664;139.738;2023-06-22T11:57:38;18.50;99.90
9414;DHT22;4746;35.664;139.738;2023-06-22T12:00:21;18.50;99.90
9414;DHT22;4746;35.664;139.738;2023-06-22T12:02:53;18.50;99.90
9414;DHT22;4746;35.664;139.738;2023-06-22T12:05:21;18.50;99.90
9414;DHT22;4746;35.664;139.738;2023-06-22T12:07:50;18.40;99.90
9414;DHT22;4746;35.664;139.738;2023-06-22T12:10:22;18.40;99.90
9414;DHT22;4746;35.664;139.738;2023-06-22T12:12:52;18.40;99.90
9414;DHT22;4746;35.664;139.738;2023-06-22T12:15:19;18.40;99.90
9414;DHT22;4746;35.664;139.738;2023-06-22T12:17:48;18.30;99.90
9414;DHT22;4746;35.664;139.738;2023-06-22T12:20:16;18.30;99.90
9414;DHT22;4746;35.664;139.738;2023-06-22T12:22:44;18.30;99.90
9414;DHT22;4746;35.664;139.738;2023-06-22T12:25:13;18.20;99.90
9414;DHT22;4746;35.664;139.738;2023-06-22T12:27:41;18.20;99.90
9414;DHT22;4746;35.664;139.738;2023-06-22T12:30:09;18.20;99.90
9414;DHT22;4746;35.664;139.738;2023-06-22T12:32:38;18.30;99.90
9414;DHT22;4746;35.664;139.738;2023-06-22T12:35:05;18.30;99.90
9414;DHT22;4746;35.664;139.738;2023-06-22T12:37:38;18.30;99.90
9414;DHT22;4746;35.664;139.738;2023-06-22T12:40:06;18.30;99.90
9414;DHT22;4746;35.664;139.738;2023-06-22T12:42:34;18.30;99.90
9414;DHT22;4746;35.664;139.738;2023-06-22T12:45:02;18.30;99.90
9414;DHT22;4746;35.664;139.738;2023-06-22T12:47:30;18.20;99.90
9414;DHT22;4746;35.664;139.738;2023-06-22T12:49:58;18.30;99.90
9414;DHT22;4746;35.664;139.738;2023-06-22T12:52:25;18.30;99.90
9414;DHT22;4746;35.664;139.738;2023-06-22T12:54:53;18.20;99.90
9414;DHT22;4746;35.664;139.738;2023-06-22T12:57:20;18.20;99.90
9414;DHT22;4746;35.664;139.738;2023-06-22T12:59:48;18.20;99.90
9414;DHT22;4746;35.664;139.738;2023-06-22T13:02:16;18.10;99.90
9414;DHT22;4746;35.664;139.738;2023-06-22T13:04:44;18.10;99.90
9414;DHT22;4746;35.664;139.738;2023-06-22T13:07:12;18.10;99.90
9414;DHT22;4746;35.664;139.738;2023-06-22T13:09:39;18.10;99.90
9414;DHT22;4746;35.664;139.738;2023-06-22T13:12:07;18.10;99.90
9414;DHT22;4746;35.664;139.738;2023-06-22T13:14:35;18.10;99.90
9414;DHT22;4746;35.664;139.738;2023-06-22T13:17:03;18.10;99.90
9414;DHT22;4746;35.664;139.738;2023-06-22T13:19:30;18.10;99.90
9414;DHT22;4746;35.664;139.738;2023-06-22T13:21:59;18.10;99.90
9414;DHT22;4746;35.664;139.738;2023-06-22T13:24:26;18.10;99.90
9414;DHT22;4746;35.664;139.738;2023-06-22T13:26:54;18.00;99.90
9414;DHT22;4746;35.664;139.738;2023-06-22T13:29:21;18.00;99.90
9414;DHT22;4746;35.664;139.738;2023-06-22T13:31:49;18.00;99.90
9414;DHT22;4746;35.664;139.738;2023-06-22T13:34:16;18.00;99.90
9414;DHT22;4746;35.664;139.738;2023-06-22T13:36:44;18.00;99.90
9414;DHT22;4746;35.664;139.738;2023-06-22T13:39:12;18.00;99.90
9414;DHT22;4746;35.664;139.738;2023-06-22T13:41:39;18.00;99.90
9414;DHT22;4746;35.664;139.738;2023-06-22T13:44:10;18.10;99.90
9414;DHT22;4746;35.664;139.738;2023-06-22T13:46:37;18.10;99.90
9414;DHT22;4746;35.664;139.738;2023-06-22T13:49:04;18.10;99.90
9414;DHT22;4746;35.664;139.738;2023-06-22T13:51:32;18.10;99.90
9414;DHT22;4746;35.664;139.738;2023-06-22T13:53:59;18.10;99.90
9414;DHT22;4746;35.664;139.738;2023-06-22T13:56:28;18.10;99.90
9414;DHT22;4746;35.664;139.738;2023-06-22T13:58:55;18.10;99.90
9414;DHT22;4746;35.664;139.738;2023-06-22T14:01:23;18.20;99.90
9414;DHT22;4746;35.664;139.738;2023-06-22T14:03:50;18.20;99.90
9414;DHT22;4746;35.664;139.738;2023-06-22T14:06:18;18.20;99.90
9414;DHT22;4746;35.664;139.738;2023-06-22T14:08:45;18.20;99.90
9414;DHT22;4746;35.664;139.738;2023-06-22T14:11:13;18.30;99.90
9414;DHT22;4746;35.664;139.738;2023-06-22T14:13:40;18.30;99.90
9414;DHT22;4746;35.664;139.738;2023-06-22T14:16:09;18.30;99.90
9414;DHT22;4746;35.664;139.738;2023-06-22T14:18:37;18.30;99.90
9414;DHT22;4746;35.664;139.738;2023-06-22T14:21:05;18.30;99.90
9414;DHT22;4746;35.664;139.738;2023-06-22T14:23:33;18.30;99.90
9414;DHT22;4746;35.664;139.738;2023-06-22T14:26:00;18.30;99.90
9414;DHT22;4746;35.664;139.738;2023-06-22T14:28:28;18.30;99.90
9414;DHT22;4746;35.664;139.738;2023-06-22T14:30:55;18.30;99.90
9414;DHT22;4746;35.664;139.738;2023-06-22T14:33:23;18.30;99.90
9414;DHT22;4746;35.664;139.738;2023-06-22T14:35:50;18.30;99.90
9414;DHT22;4746;35.664;139.738;2023-06-22T14:38:18;18.30;99.90
9414;DHT22;4746;35.664;139.738;2023-06-22T14:40:46;18.30;99.90
9414;DHT22;4746;35.664;139.738;2023-06-22T14:43:13;18.30;99.90
9414;DHT22;4746;35.664;139.738;2023-06-22T14:45:41;18.30;99.90
9414;DHT22;4746;35.664;139.738;2023-06-22T14:48:08;18.30;99.90
9414;DHT22;4746;35.664;139.738;2023-06-22T14:50:37;18.30;99.90
9414;DHT22;4746;35.664;139.738;2023-06-22T14:53:04;18.30;99.90
9414;DHT22;4746;35.664;139.738;2023-06-22T14:55:32;18.30;99.90
9414;DHT22;4746;35.664;139.738;2023-06-22T14:57:59;18.30;99.90
9414;DHT22;4746;35.664;139.738;2023-06-22T15:00:27;18.30;99.90
9414;DHT22;4746;35.664;139.738;2023-06-22T15:02:54;18.40;99.90
9414;DHT22;4746;35.664;139.738;2023-06-22T15:05:22;18.40;99.90
9414;DHT22;4746;35.664;139.738;2023-06-22T15:07:50;18.40;99.90
9414;DHT22;4746;35.664;139.738;2023-06-22T15:10:18;18.40;99.90
9414;DHT22;4746;35.664;139.738;2023-06-22T15:12:45;18.40;99.90
9414;DHT22;4746;35.664;139.738;2023-06-22T15:15:13;18.40;99.90
9414;DHT22;4746;35.664;139.738;2023-06-22T15:17:40;18.30;99.90
9414;DHT22;4746;35.664;139.738;2023-06-22T15:20:08;18.30;99.90
9414;DHT22;4746;35.664;139.738;2023-06-22T15:22:35;18.30;99.90
9414;DHT22;4746;35.664;139.738;2023-06-22T15:25:04;18.30;99.90
9414;DHT22;4746;35.664;139.738;2023-06-22T15:27:35;18.30;99.90
9414;DHT22;4746;35.664;139.738;2023-06-22T15:30:03;18.30;99.90
9414;DHT22;4746;35.664;139.738;2023-06-22T15:32:31;18.30;99.90
9414;DHT22;4746;35.664;139.738;2023-06-22T15:34:59;18.30;99.90
9414;DHT22;4746;35.664;139.738;2023-06-22T15:37:28;18.30;99.90
9414;DHT22;4746;35.664;139.738;2023-06-22T15:39:56;18.30;99.90
9414;DHT22;4746;35.664;139.738;2023-06-22T15:42:24;18.20;99.90
9414;DHT22;4746;35.664;139.738;2023-06-22T15:44:52;18.20;99.90